Accueil
METAR-TAF:

METAR-TAF

Aéroports :

Wawa, Ontario, Canada

latitude: 47-58N, longitude: 084-47W, altitude: 287 m

Observation

Le bulletin a été fait il y a 26 minutes, à 11:24 UTC
Vent 3 kt de nord-est, variant entre nord/nord-est et est/sud-est
Température 7°C
Humidité 100%
Pression 1013 hPa
Visibilité: 19.3 km
Ciel couvert à une hauteur de 7200 ft
pluie faible

METAR: CYXZ 231124Z 04003KT 020V120 12SM -RA OVC072 07/07 A2992 RMK AC8 SLP141

Heure: 07:50 (11:50 UTC)

Prévision

Le bulletin a été fait il y a 16 heures et 12 minutes, à 19:38 UTC
Prévision valable du 22 à 20 UTC au 22 à 24 UTC
Vent 8 kt de sud-ouest avec des rafales jusqu'à 18 kt
Visibilité: 10 km
Quelques nuages à une hauteur de 3000 ft
Nuages épars à une hauteur de 8000 ft
Evoluant progressivement
du 22 à 23 UTC au 22 à 24 UTC
Vent 6 kt de sud-ouest

TAF: CYXZ 221938Z 2220/2224 23008G18KT P6SM FEW030 SCT080 BECMG 2223/2224 22006KT RMK NXT FCST WILL BE ISSUED AT 231245Z

Observations et prévisions météorologiques de plus de 4000 aéroports (messages METAR et TAF).

Les stations disponibles sont représentées par des disques jaunes et rouges sur la carte.

Passer la souris dessus pour voir le nom de la station.

Cliquer dessus pour voir les observations et prévisions météorologiques.

Pour changer de carte: cliquez sur les boutons verts avec une croix noire pour zoomer, sur le bouton vert avec un tiret pour effectuer un zoom arrière, ou sur les flèches vertes pour les cartes adjacentes.


METAR-TAF: